sensor_id;sensor_type;location;lat;lon;timestamp;P1;durP1;ratioP1;P2;durP2;ratioP2
24826;SDS011;12910;57.690;11.974;2023-02-28T00:00:15;6.73;;;2.80;;
24826;SDS011;12910;57.690;11.974;2023-02-28T00:02:41;4.10;;;3.43;;
24826;SDS011;12910;57.690;11.974;2023-02-28T00:05:08;4.90;;;3.03;;
24826;SDS011;12910;57.690;11.974;2023-02-28T00:07:35;3.60;;;3.20;;
24826;SDS011;12910;57.690;11.974;2023-02-28T00:10:01;6.13;;;3.00;;
24826;SDS011;12910;57.690;11.974;2023-02-28T00:12:27;7.37;;;2.73;;
24826;SDS011;12910;57.690;11.974;2023-02-28T00:14:52;2.60;;;2.40;;
24826;SDS011;12910;57.690;11.974;2023-02-28T00:17:18;6.13;;;3.73;;
24826;SDS011;12910;57.690;11.974;2023-02-28T00:19:46;7.10;;;2.70;;
24826;SDS011;12910;57.690;11.974;2023-02-28T00:22:16;5.40;;;2.70;;
24826;SDS011;12910;57.690;11.974;2023-02-28T00:24:45;3.57;;;2.17;;
24826;SDS011;12910;57.690;11.974;2023-02-28T00:27:11;4.33;;;3.40;;
24826;SDS011;12910;57.690;11.974;2023-02-28T00:29:36;12.70;;;3.00;;
24826;SDS011;12910;57.690;11.974;2023-02-28T00:32:02;4.37;;;3.07;;
24826;SDS011;12910;57.690;11.974;2023-02-28T00:34:28;3.33;;;3.03;;
24826;SDS011;12910;57.690;11.974;2023-02-28T00:36:53;4.73;;;3.03;;
24826;SDS011;12910;57.690;11.974;2023-02-28T00:39:19;4.57;;;2.93;;
24826;SDS011;12910;57.690;11.974;2023-02-28T00:41:44;3.20;;;2.97;;
24826;SDS011;12910;57.690;11.974;2023-02-28T00:44:10;7.30;;;3.13;;
24826;SDS011;12910;57.690;11.974;2023-02-28T00:46:36;4.77;;;3.20;;
24826;SDS011;12910;57.690;11.974;2023-02-28T00:49:01;4.67;;;2.27;;
24826;SDS011;12910;57.690;11.974;2023-02-28T00:51:26;9.30;;;3.33;;
24826;SDS011;12910;57.690;11.974;2023-02-28T00:53:52;2.83;;;2.17;;
24826;SDS011;12910;57.690;11.974;2023-02-28T00:56:17;3.30;;;2.53;;
24826;SDS011;12910;57.690;11.974;2023-02-28T00:58:42;5.17;;;2.80;;
24826;SDS011;12910;57.690;11.974;2023-02-28T01:01:08;3.90;;;3.50;;
24826;SDS011;12910;57.690;11.974;2023-02-28T01:03:33;4.70;;;3.13;;
24826;SDS011;12910;57.690;11.974;2023-02-28T01:05:58;9.53;;;2.77;;
24826;SDS011;12910;57.690;11.974;2023-02-28T01:08:24;4.80;;;2.60;;
24826;SDS011;12910;57.690;11.974;2023-02-28T01:10:50;2.97;;;2.60;;
24826;SDS011;12910;57.690;11.974;2023-02-28T01:13:16;8.07;;;3.10;;
24826;SDS011;12910;57.690;11.974;2023-02-28T01:15:43;9.53;;;2.87;;
24826;SDS011;12910;57.690;11.974;2023-02-28T01:18:14;6.33;;;2.97;;
24826;SDS011;12910;57.690;11.974;2023-02-28T01:20:39;3.20;;;2.90;;
24826;SDS011;12910;57.690;11.974;2023-02-28T01:23:05;10.03;;;3.03;;
24826;SDS011;12910;57.690;11.974;2023-02-28T01:25:30;8.60;;;2.03;;
24826;SDS011;12910;57.690;11.974;2023-02-28T01:27:56;4.33;;;2.47;;
24826;SDS011;12910;57.690;11.974;2023-02-28T01:30:21;5.17;;;2.07;;
24826;SDS011;12910;57.690;11.974;2023-02-28T01:32:46;5.20;;;2.30;;
24826;SDS011;12910;57.690;11.974;2023-02-28T01:35:12;9.03;;;2.13;;
24826;SDS011;12910;57.690;11.974;2023-02-28T01:37:37;2.33;;;2.13;;
24826;SDS011;12910;57.690;11.974;2023-02-28T01:40:03;4.27;;;2.30;;
24826;SDS011;12910;57.690;11.974;2023-02-28T01:42:29;11.03;;;2.90;;
24826;SDS011;12910;57.690;11.974;2023-02-28T01:47:51;3.47;;;2.37;;
24826;SDS011;12910;57.690;11.974;2023-02-28T01:50:20;3.60;;;2.00;;
24826;SDS011;12910;57.690;11.974;2023-02-28T01:52:49;6.23;;;2.13;;
24826;SDS011;12910;57.690;11.974;2023-02-28T01:55:17;2.50;;;2.07;;
24826;SDS011;12910;57.690;11.974;2023-02-28T01:57:49;1.83;;;1.67;;
24826;SDS011;12910;57.690;11.974;2023-02-28T02:00:20;7.30;;;2.30;;
24826;SDS011;12910;57.690;11.974;2023-02-28T02:02:49;4.73;;;1.90;;
24826;SDS011;12910;57.690;11.974;2023-02-28T02:05:20;2.60;;;1.87;;
24826;SDS011;12910;57.690;11.974;2023-02-28T02:07:48;2.00;;;1.70;;
24826;SDS011;12910;57.690;11.974;2023-02-28T02:26:33;3.50;;;2.50;;
24826;SDS011;12910;57.690;11.974;2023-02-28T02:34:52;2.83;;;1.93;;
24826;SDS011;12910;57.690;11.974;2023-02-28T02:40:17;3.53;;;2.03;;
24826;SDS011;12910;57.690;11.974;2023-02-28T02:45:31;6.33;;;2.80;;
24826;SDS011;12910;57.690;11.974;2023-02-28T02:48:02;2.70;;;2.50;;
24826;SDS011;12910;57.690;11.974;2023-02-28T02:50:36;3.43;;;2.67;;
24826;SDS011;12910;57.690;11.974;2023-02-28T02:53:05;2.67;;;2.10;;
24826;SDS011;12910;57.690;11.974;2023-02-28T02:55:33;5.30;;;2.00;;
24826;SDS011;12910;57.690;11.974;2023-02-28T02:58:03;2.47;;;2.27;;
24826;SDS011;12910;57.690;11.974;2023-02-28T03:00:42;5.60;;;1.80;;
24826;SDS011;12910;57.690;11.974;2023-02-28T03:03:13;1.60;;;1.50;;
24826;SDS011;12910;57.690;11.974;2023-02-28T03:05:46;9.53;;;1.57;;
24826;SDS011;12910;57.690;11.974;2023-02-28T03:08:14;8.77;;;1.83;;
24826;SDS011;12910;57.690;11.974;2023-02-28T03:10:41;1.30;;;1.20;;
24826;SDS011;12910;57.690;11.974;2023-02-28T03:13:17;2.60;;;1.63;;
24826;SDS011;12910;57.690;11.974;2023-02-28T03:21:40;2.33;;;1.47;;
24826;SDS011;12910;57.690;11.974;2023-02-28T03:24:10;3.87;;;1.93;;
24826;SDS011;12910;57.690;11.974;2023-02-28T03:26:40;2.63;;;2.00;;
24826;SDS011;12910;57.690;11.974;2023-02-28T03:31:50;2.20;;;1.97;;
24826;SDS011;12910;57.690;11.974;2023-02-28T03:34:29;2.30;;;2.10;;
24826;SDS011;12910;57.690;11.974;2023-02-28T03:37:08;2.57;;;2.37;;
24826;SDS011;12910;57.690;11.974;2023-02-28T03:39:43;2.47;;;2.27;;
24826;SDS011;12910;57.690;11.974;2023-02-28T03:42:16;8.13;;;1.80;;
24826;SDS011;12910;57.690;11.974;2023-02-28T03:44:58;2.13;;;1.93;;
24826;SDS011;12910;57.690;11.974;2023-02-28T03:50:25;2.83;;;1.83;;
24826;SDS011;12910;57.690;11.974;2023-02-28T03:52:58;1.73;;;1.63;;
24826;SDS011;12910;57.690;11.974;2023-02-28T03:55:53;2.40;;;1.70;;
24826;SDS011;12910;57.690;11.974;2023-02-28T04:01:46;2.27;;;2.17;;
24826;SDS011;12910;57.690;11.974;2023-02-28T04:04:13;6.63;;;2.77;;
24826;SDS011;12910;57.690;11.974;2023-02-28T04:06:40;3.17;;;1.80;;
24826;SDS011;12910;57.690;11.974;2023-02-28T04:09:07;1.80;;;1.57;;
24826;SDS011;12910;57.690;11.974;2023-02-28T04:11:36;2.73;;;2.53;;
24826;SDS011;12910;57.690;11.974;2023-02-28T04:14:03;6.43;;;2.10;;
24826;SDS011;12910;57.690;11.974;2023-02-28T04:16:31;3.17;;;2.93;;
24826;SDS011;12910;57.690;11.974;2023-02-28T04:18:57;7.60;;;2.57;;
24826;SDS011;12910;57.690;11.974;2023-02-28T04:21:28;2.07;;;1.97;;
24826;SDS011;12910;57.690;11.974;2023-02-28T04:23:55;7.40;;;1.90;;
24826;SDS011;12910;57.690;11.974;2023-02-28T04:26:20;3.53;;;2.43;;
24826;SDS011;12910;57.690;11.974;2023-02-28T04:28:46;2.93;;;2.60;;
24826;SDS011;12910;57.690;11.974;2023-02-28T04:31:11;6.53;;;1.90;;
24826;SDS011;12910;57.690;11.974;2023-02-28T04:33:36;3.20;;;2.60;;
24826;SDS011;12910;57.690;11.974;2023-02-28T04:36:03;2.70;;;2.30;;
24826;SDS011;12910;57.690;11.974;2023-02-28T04:38:35;2.63;;;2.43;;
24826;SDS011;12910;57.690;11.974;2023-02-28T04:41:02;5.60;;;2.23;;
24826;SDS011;12910;57.690;11.974;2023-02-28T04:43:27;3.33;;;2.03;;
24826;SDS011;12910;57.690;11.974;2023-02-28T04:45:54;2.10;;;1.87;;
24826;SDS011;12910;57.690;11.974;2023-02-28T04:48:23;3.50;;;1.80;;
24826;SDS011;12910;57.690;11.974;2023-02-28T04:50:50;2.57;;;1.70;;
24826;SDS011;12910;57.690;11.974;2023-02-28T04:53:16;3.83;;;1.80;;
24826;SDS011;12910;57.690;11.974;2023-02-28T04:55:41;6.97;;;1.90;;
24826;SDS011;12910;57.690;11.974;2023-02-28T04:58:07;5.07;;;2.57;;
24826;SDS011;12910;57.690;11.974;2023-02-28T05:00:32;1.83;;;1.67;;
24826;SDS011;12910;57.690;11.974;2023-02-28T05:02:58;3.77;;;1.73;;
24826;SDS011;12910;57.690;11.974;2023-02-28T05:05:23;10.73;;;2.30;;
24826;SDS011;12910;57.690;11.974;2023-02-28T05:07:48;1.43;;;1.30;;
24826;SDS011;12910;57.690;11.974;2023-02-28T05:10:14;8.90;;;2.20;;
24826;SDS011;12910;57.690;11.974;2023-02-28T05:12:39;1.67;;;1.57;;
24826;SDS011;12910;57.690;11.974;2023-02-28T05:15:05;1.83;;;1.73;;
24826;SDS011;12910;57.690;11.974;2023-02-28T05:17:30;5.63;;;2.10;;
24826;SDS011;12910;57.690;11.974;2023-02-28T05:19:56;3.57;;;2.17;;
24826;SDS011;12910;57.690;11.974;2023-02-28T05:22:21;7.30;;;2.03;;
24826;SDS011;12910;57.690;11.974;2023-02-28T05:24:47;2.17;;;1.97;;
24826;SDS011;12910;57.690;11.974;2023-02-28T05:27:12;3.80;;;1.97;;
24826;SDS011;12910;57.690;11.974;2023-02-28T05:29:37;5.40;;;2.07;;
24826;SDS011;12910;57.690;11.974;2023-02-28T05:32:10;3.83;;;2.73;;
24826;SDS011;12910;57.690;11.974;2023-02-28T05:34:37;2.67;;;1.90;;
24826;SDS011;12910;57.690;11.974;2023-02-28T05:37:03;2.47;;;2.27;;
24826;SDS011;12910;57.690;11.974;2023-02-28T05:39:29;1.90;;;1.80;;
24826;SDS011;12910;57.690;11.974;2023-02-28T05:41:54;1.67;;;1.57;;
24826;SDS011;12910;57.690;11.974;2023-02-28T05:44:20;4.40;;;2.17;;
24826;SDS011;12910;57.690;11.974;2023-02-28T05:46:45;2.80;;;2.53;;
24826;SDS011;12910;57.690;11.974;2023-02-28T05:49:11;3.77;;;2.03;;
24826;SDS011;12910;57.690;11.974;2023-02-28T05:51:36;2.37;;;1.97;;
24826;SDS011;12910;57.690;11.974;2023-02-28T05:54:04;2.60;;;1.83;;
24826;SDS011;12910;57.690;11.974;2023-02-28T05:56:31;6.43;;;1.77;;
24826;SDS011;12910;57.690;11.974;2023-02-28T05:58:56;8.73;;;2.80;;
24826;SDS011;12910;57.690;11.974;2023-02-28T06:03:58;1.97;;;1.83;;
24826;SDS011;12910;57.690;11.974;2023-02-28T06:06:25;2.17;;;2.00;;
24826;SDS011;12910;57.690;11.974;2023-02-28T06:08:50;2.87;;;1.30;;
24826;SDS011;12910;57.690;11.974;2023-02-28T06:11:15;2.27;;;2.00;;
24826;SDS011;12910;57.690;11.974;2023-02-28T06:13:41;1.73;;;1.53;;
24826;SDS011;12910;57.690;11.974;2023-02-28T06:16:07;11.37;;;3.13;;
24826;SDS011;12910;57.690;11.974;2023-02-28T06:18:35;12.17;;;3.33;;
24826;SDS011;12910;57.690;11.974;2023-02-28T06:21:00;8.97;;;2.53;;
24826;SDS011;12910;57.690;11.974;2023-02-28T06:23:25;5.07;;;2.27;;
24826;SDS011;12910;57.690;11.974;2023-02-28T06:25:51;11.07;;;2.97;;
24826;SDS011;12910;57.690;11.974;2023-02-28T06:28:17;20.47;;;3.43;;
24826;SDS011;12910;57.690;11.974;2023-02-28T06:30:43;10.20;;;3.40;;
24826;SDS011;12910;57.690;11.974;2023-02-28T06:33:08;8.97;;;3.77;;
24826;SDS011;12910;57.690;11.974;2023-02-28T06:35:34;8.37;;;2.73;;
24826;SDS011;12910;57.690;11.974;2023-02-28T06:37:59;9.10;;;3.07;;
24826;SDS011;12910;57.690;11.974;2023-02-28T06:40:24;2.97;;;2.60;;
24826;SDS011;12910;57.690;11.974;2023-02-28T06:42:50;2.63;;;2.43;;
24826;SDS011;12910;57.690;11.974;2023-02-28T06:45:15;2.73;;;2.27;;
24826;SDS011;12910;57.690;11.974;2023-02-28T06:47:41;4.63;;;2.23;;
24826;SDS011;12910;57.690;11.974;2023-02-28T06:50:08;3.57;;;2.40;;
24826;SDS011;12910;57.690;11.974;2023-02-28T06:52:35;14.73;;;2.60;;
24826;SDS011;12910;57.690;11.974;2023-02-28T06:55:04;3.07;;;2.43;;
24826;SDS011;12910;57.690;11.974;2023-02-28T06:57:30;2.70;;;2.40;;
24826;SDS011;12910;57.690;11.974;2023-02-28T06:59:57;6.77;;;2.70;;
24826;SDS011;12910;57.690;11.974;2023-02-28T07:02:27;6.93;;;2.27;;
24826;SDS011;12910;57.690;11.974;2023-02-28T07:04:53;6.37;;;2.23;;
24826;SDS011;12910;57.690;11.974;2023-02-28T07:07:19;11.90;;;3.43;;
24826;SDS011;12910;57.690;11.974;2023-02-28T07:09:44;34.93;;;3.83;;
24826;SDS011;12910;57.690;11.974;2023-02-28T07:12:10;3.87;;;3.33;;
24826;SDS011;12910;57.690;11.974;2023-02-28T07:14:36;8.67;;;2.40;;
24826;SDS011;12910;57.690;11.974;2023-02-28T07:17:01;4.43;;;3.00;;
24826;SDS011;12910;57.690;11.974;2023-02-28T07:19:27;4.50;;;1.90;;
24826;SDS011;12910;57.690;11.974;2023-02-28T07:21:53;12.73;;;2.03;;
24826;SDS011;12910;57.690;11.974;2023-02-28T07:24:18;8.87;;;2.50;;
24826;SDS011;12910;57.690;11.974;2023-02-28T07:26:44;2.90;;;2.20;;
24826;SDS011;12910;57.690;11.974;2023-02-28T07:29:09;9.33;;;2.40;;
24826;SDS011;12910;57.690;11.974;2023-02-28T07:31:34;2.53;;;2.33;;
24826;SDS011;12910;57.690;11.974;2023-02-28T07:34:00;2.70;;;2.50;;
24826;SDS011;12910;57.690;11.974;2023-02-28T07:36:25;3.23;;;2.93;;
24826;SDS011;12910;57.690;11.974;2023-02-28T07:38:51;4.33;;;2.40;;
24826;SDS011;12910;57.690;11.974;2023-02-28T07:41:17;3.80;;;2.87;;
24826;SDS011;12910;57.690;11.974;2023-02-28T07:43:45;5.80;;;3.20;;
24826;SDS011;12910;57.690;11.974;2023-02-28T07:46:11;8.03;;;4.23;;
24826;SDS011;12910;57.690;11.974;2023-02-28T07:48:42;12.50;;;3.63;;
24826;SDS011;12910;57.690;11.974;2023-02-28T07:51:09;9.17;;;4.60;;
24826;SDS011;12910;57.690;11.974;2023-02-28T07:53:34;6.13;;;4.33;;
24826;SDS011;12910;57.690;11.974;2023-02-28T07:56:00;8.10;;;4.43;;
24826;SDS011;12910;57.690;11.974;2023-02-28T07:58:27;12.60;;;4.77;;
24826;SDS011;12910;57.690;11.974;2023-02-28T08:00:53;14.70;;;4.40;;
24826;SDS011;12910;57.690;11.974;2023-02-28T08:03:19;5.87;;;4.03;;
24826;SDS011;12910;57.690;11.974;2023-02-28T08:05:46;5.97;;;4.40;;
24826;SDS011;12910;57.690;11.974;2023-02-28T08:08:12;28.40;;;5.77;;
24826;SDS011;12910;57.690;11.974;2023-02-28T08:10:38;30.37;;;6.40;;
24826;SDS011;12910;57.690;11.974;2023-02-28T08:13:04;32.43;;;6.03;;
24826;SDS011;12910;57.690;11.974;2023-02-28T08:15:29;35.20;;;5.40;;
24826;SDS011;12910;57.690;11.974;2023-02-28T08:17:55;37.30;;;6.50;;
24826;SDS011;12910;57.690;11.974;2023-02-28T08:20:21;42.17;;;5.53;;
24826;SDS011;12910;57.690;11.974;2023-02-28T08:22:48;11.40;;;4.37;;
24826;SDS011;12910;57.690;11.974;2023-02-28T08:25:13;22.83;;;4.27;;
24826;SDS011;12910;57.690;11.974;2023-02-28T08:27:39;12.30;;;3.50;;
24826;SDS011;12910;57.690;11.974;2023-02-28T08:30:05;18.57;;;4.17;;
24826;SDS011;12910;57.690;11.974;2023-02-28T08:32:32;23.90;;;4.40;;
24826;SDS011;12910;57.690;11.974;2023-02-28T08:34:58;19.80;;;4.53;;
24826;SDS011;12910;57.690;11.974;2023-02-28T08:37:24;28.57;;;4.30;;
24826;SDS011;12910;57.690;11.974;2023-02-28T08:39:50;38.37;;;5.43;;
24826;SDS011;12910;57.690;11.974;2023-02-28T08:42:15;7.63;;;3.83;;
24826;SDS011;12910;57.690;11.974;2023-02-28T08:44:41;7.63;;;3.57;;
24826;SDS011;12910;57.690;11.974;2023-02-28T08:47:06;4.43;;;4.03;;
24826;SDS011;12910;57.690;11.974;2023-02-28T08:49:32;23.57;;;3.90;;
24826;SDS011;12910;57.690;11.974;2023-02-28T08:51:57;19.77;;;3.77;;
24826;SDS011;12910;57.690;11.974;2023-02-28T08:54:23;6.90;;;5.07;;
24826;SDS011;12910;57.690;11.974;2023-02-28T08:56:49;3.63;;;2.87;;
24826;SDS011;12910;57.690;11.974;2023-02-28T08:59:15;4.40;;;3.73;;
24826;SDS011;12910;57.690;11.974;2023-02-28T09:01:41;4.77;;;3.57;;
24826;SDS011;12910;57.690;11.974;2023-02-28T09:04:08;3.40;;;3.10;;
24826;SDS011;12910;57.690;11.974;2023-02-28T09:06:35;5.53;;;3.63;;
24826;SDS011;12910;57.690;11.974;2023-02-28T09:09:01;5.13;;;2.40;;
24826;SDS011;12910;57.690;11.974;2023-02-28T09:11:27;2.43;;;2.23;;
24826;SDS011;12910;57.690;11.974;2023-02-28T09:13:53;3.43;;;3.13;;
24826;SDS011;12910;57.690;11.974;2023-02-28T09:16:20;3.37;;;3.13;;
24826;SDS011;12910;57.690;11.974;2023-02-28T09:18:46;9.13;;;3.30;;
24826;SDS011;12910;57.690;11.974;2023-02-28T09:21:12;8.30;;;3.13;;
24826;SDS011;12910;57.690;11.974;2023-02-28T09:23:40;2.93;;;2.73;;
24826;SDS011;12910;57.690;11.974;2023-02-28T09:26:06;3.37;;;3.07;;
24826;SDS011;12910;57.690;11.974;2023-02-28T09:28:33;4.30;;;3.93;;
24826;SDS011;12910;57.690;11.974;2023-02-28T09:30:59;4.67;;;2.97;;
24826;SDS011;12910;57.690;11.974;2023-02-28T09:33:24;6.57;;;3.57;;
24826;SDS011;12910;57.690;11.974;2023-02-28T09:35:51;6.07;;;4.27;;
24826;SDS011;12910;57.690;11.974;2023-02-28T09:38:23;6.27;;;3.63;;
24826;SDS011;12910;57.690;11.974;2023-02-28T09:40:53;9.97;;;2.87;;
24826;SDS011;12910;57.690;11.974;2023-02-28T09:43:21;3.50;;;3.20;;
24826;SDS011;12910;57.690;11.974;2023-02-28T09:45:59;3.87;;;3.57;;
24826;SDS011;12910;57.690;11.974;2023-02-28T09:48:32;6.43;;;4.23;;
24826;SDS011;12910;57.690;11.974;2023-02-28T09:54:16;5.37;;;4.87;;
24826;SDS011;12910;57.690;11.974;2023-02-28T09:56:54;5.30;;;4.80;;
24826;SDS011;12910;57.690;11.974;2023-02-28T09:59:41;5.40;;;5.00;;
24826;SDS011;12910;57.690;11.974;2023-02-28T10:05:39;3.70;;;3.40;;
24826;SDS011;12910;57.690;11.974;2023-02-28T10:10:47;3.53;;;3.23;;
24826;SDS011;12910;57.690;11.974;2023-02-28T10:13:20;4.37;;;3.97;;
24826;SDS011;12910;57.690;11.974;2023-02-28T10:15:55;5.53;;;3.60;;
24826;SDS011;12910;57.690;11.974;2023-02-28T10:18:25;4.33;;;3.93;;
24826;SDS011;12910;57.690;11.974;2023-02-28T10:20:55;6.10;;;4.20;;
24826;SDS011;12910;57.690;11.974;2023-02-28T10:23:34;5.27;;;4.77;;
24826;SDS011;12910;57.690;11.974;2023-02-28T10:26:09;5.10;;;4.70;;
24826;SDS011;12910;57.690;11.974;2023-02-28T10:28:37;12.73;;;5.50;;
24826;SDS011;12910;57.690;11.974;2023-02-28T10:31:04;6.90;;;4.93;;
24826;SDS011;12910;57.690;11.974;2023-02-28T10:33:31;22.57;;;6.13;;
24826;SDS011;12910;57.690;11.974;2023-02-28T10:35:59;17.43;;;4.97;;
24826;SDS011;12910;57.690;11.974;2023-02-28T10:38:26;7.63;;;4.13;;
24826;SDS011;12910;57.690;11.974;2023-02-28T10:43:30;5.97;;;4.97;;
24826;SDS011;12910;57.690;11.974;2023-02-28T10:46:04;5.30;;;4.90;;
24826;SDS011;12910;57.690;11.974;2023-02-28T10:51:02;5.63;;;5.13;;
24826;SDS011;12910;57.690;11.974;2023-02-28T10:53:30;5.27;;;4.77;;
24826;SDS011;12910;57.690;11.974;2023-02-28T10:55:59;15.30;;;5.73;;
24826;SDS011;12910;57.690;11.974;2023-02-28T11:01:13;5.43;;;4.73;;
24826;SDS011;12910;57.690;11.974;2023-02-28T11:03:40;9.47;;;4.90;;
24826;SDS011;12910;57.690;11.974;2023-02-28T11:09:06;6.10;;;5.50;;
24826;SDS011;12910;57.690;11.974;2023-02-28T11:11:46;4.80;;;4.40;;
24826;SDS011;12910;57.690;11.974;2023-02-28T11:14:20;14.90;;;5.90;;
24826;SDS011;12910;57.690;11.974;2023-02-28T11:16:49;15.33;;;4.80;;
24826;SDS011;12910;57.690;11.974;2023-02-28T11:19:27;4.57;;;4.27;;
24826;SDS011;12910;57.690;11.974;2023-02-28T11:22:02;6.73;;;4.93;;
24826;SDS011;12910;57.690;11.974;2023-02-28T11:27:01;12.03;;;5.20;;
24826;SDS011;12910;57.690;11.974;2023-02-28T11:29:30;19.33;;;5.97;;
24826;SDS011;12910;57.690;11.974;2023-02-28T11:34:45;7.87;;;4.47;;
24826;SDS011;12910;57.690;11.974;2023-02-28T11:37:16;9.27;;;4.60;;
24826;SDS011;12910;57.690;11.974;2023-02-28T11:39:44;9.03;;;5.73;;
24826;SDS011;12910;57.690;11.974;2023-02-28T11:47:31;12.53;;;4.37;;
24826;SDS011;12910;57.690;11.974;2023-02-28T11:55:24;3.83;;;3.53;;
24826;SDS011;12910;57.690;11.974;2023-02-28T12:01:13;5.07;;;4.57;;
24826;SDS011;12910;57.690;11.974;2023-02-28T12:15:20;6.37;;;3.60;;
24826;SDS011;12910;57.690;11.974;2023-02-28T12:17:51;5.00;;;4.43;;
24826;SDS011;12910;57.690;11.974;2023-02-28T12:28:34;3.70;;;3.40;;
24826;SDS011;12910;57.690;11.974;2023-02-28T12:31:14;5.70;;;3.77;;
24826;SDS011;12910;57.690;11.974;2023-02-28T12:33:53;12.83;;;3.50;;
24826;SDS011;12910;57.690;11.974;2023-02-28T12:36:24;12.77;;;4.23;;
24826;SDS011;12910;57.690;11.974;2023-02-28T12:39:13;4.37;;;3.87;;
24826;SDS011;12910;57.690;11.974;2023-02-28T12:42:17;4.70;;;4.30;;
24826;SDS011;12910;57.690;11.974;2023-02-28T12:44:56;4.27;;;3.90;;
24826;SDS011;12910;57.690;11.974;2023-02-28T12:47:25;4.57;;;4.17;;
24826;SDS011;12910;57.690;11.974;2023-02-28T12:49:52;4.33;;;3.90;;
24826;SDS011;12910;57.690;11.974;2023-02-28T12:52:39;4.40;;;4.00;;
24826;SDS011;12910;57.690;11.974;2023-02-28T12:55:13;12.70;;;5.00;;
24826;SDS011;12910;57.690;11.974;2023-02-28T12:58:03;15.17;;;4.33;;
24826;SDS011;12910;57.690;11.974;2023-02-28T13:00:38;5.17;;;4.37;;
24826;SDS011;12910;57.690;11.974;2023-02-28T13:03:28;14.40;;;3.90;;
24826;SDS011;12910;57.690;11.974;2023-02-28T13:08:57;12.33;;;4.73;;
24826;SDS011;12910;57.690;11.974;2023-02-28T13:11:33;5.03;;;4.27;;
24826;SDS011;12910;57.690;11.974;2023-02-28T13:14:05;8.57;;;4.33;;
24826;SDS011;12910;57.690;11.974;2023-02-28T13:19:18;16.63;;;4.87;;
24826;SDS011;12910;57.690;11.974;2023-02-28T13:21:48;18.80;;;4.50;;
24826;SDS011;12910;57.690;11.974;2023-02-28T13:29:28;6.73;;;4.10;;
24826;SDS011;12910;57.690;11.974;2023-02-28T13:34:39;14.20;;;3.53;;
24826;SDS011;12910;57.690;11.974;2023-02-28T14:01:02;3.67;;;1.87;;
24826;SDS011;12910;57.690;11.974;2023-02-28T14:04:07;18.60;;;2.10;;
24826;SDS011;12910;57.690;11.974;2023-02-28T14:06:54;3.63;;;2.10;;
24826;SDS011;12910;57.690;11.974;2023-02-28T14:09:25;15.83;;;3.37;;
24826;SDS011;12910;57.690;11.974;2023-02-28T14:11:56;2.60;;;2.33;;
24826;SDS011;12910;57.690;11.974;2023-02-28T14:16:59;8.57;;;1.90;;
24826;SDS011;12910;57.690;11.974;2023-02-28T14:19:27;2.77;;;2.27;;
24826;SDS011;12910;57.690;11.974;2023-02-28T14:30:25;5.83;;;1.77;;
24826;SDS011;12910;57.690;11.974;2023-02-28T14:36:16;2.60;;;2.07;;
24826;SDS011;12910;57.690;11.974;2023-02-28T14:39:01;9.00;;;1.80;;
24826;SDS011;12910;57.690;11.974;2023-02-28T14:41:35;3.20;;;2.13;;
24826;SDS011;12910;57.690;11.974;2023-02-28T14:44:23;2.30;;;1.63;;
24826;SDS011;12910;57.690;11.974;2023-02-28T14:46:56;12.47;;;3.33;;
24826;SDS011;12910;57.690;11.974;2023-02-28T14:49:27;6.90;;;2.20;;
24826;SDS011;12910;57.690;11.974;2023-02-28T14:52:03;14.00;;;2.07;;
24826;SDS011;12910;57.690;11.974;2023-02-28T14:54:30;1.70;;;1.60;;
24826;SDS011;12910;57.690;11.974;2023-02-28T14:56:55;3.13;;;1.43;;
24826;SDS011;12910;57.690;11.974;2023-02-28T14:59:23;17.43;;;3.20;;
24826;SDS011;12910;57.690;11.974;2023-02-28T15:01:51;15.30;;;2.43;;
24826;SDS011;12910;57.690;11.974;2023-02-28T15:04:25;1.80;;;1.70;;
24826;SDS011;12910;57.690;11.974;2023-02-28T15:07:07;11.50;;;1.97;;
24826;SDS011;12910;57.690;11.974;2023-02-28T15:09:38;3.53;;;1.57;;
24826;SDS011;12910;57.690;11.974;2023-02-28T15:12:04;7.77;;;1.97;;
24826;SDS011;12910;57.690;11.974;2023-02-28T15:14:29;11.33;;;2.40;;
24826;SDS011;12910;57.690;11.974;2023-02-28T15:16:57;8.63;;;2.30;;
24826;SDS011;12910;57.690;11.974;2023-02-28T15:19:34;4.37;;;2.27;;
24826;SDS011;12910;57.690;11.974;2023-02-28T15:22:06;5.73;;;2.10;;
24826;SDS011;12910;57.690;11.974;2023-02-28T15:24:44;14.63;;;2.00;;
24826;SDS011;12910;57.690;11.974;2023-02-28T15:27:21;15.80;;;5.63;;
24826;SDS011;12910;57.690;11.974;2023-02-28T15:29:49;2.43;;;1.50;;
24826;SDS011;12910;57.690;11.974;2023-02-28T15:34:58;4.93;;;1.93;;
24826;SDS011;12910;57.690;11.974;2023-02-28T15:37:50;3.00;;;2.80;;
24826;SDS011;12910;57.690;11.974;2023-02-28T15:43:33;3.27;;;1.30;;
24826;SDS011;12910;57.690;11.974;2023-02-28T15:51:17;2.80;;;1.47;;
24826;SDS011;12910;57.690;11.974;2023-02-28T15:53:47;6.37;;;1.83;;
24826;SDS011;12910;57.690;11.974;2023-02-28T15:58:47;7.13;;;1.50;;
24826;SDS011;12910;57.690;11.974;2023-02-28T16:03:47;1.83;;;1.00;;
24826;SDS011;12910;57.690;11.974;2023-02-28T16:06:24;1.87;;;1.30;;
24826;SDS011;12910;57.690;11.974;2023-02-28T16:08:59;4.47;;;1.63;;
24826;SDS011;12910;57.690;11.974;2023-02-28T16:11:24;8.47;;;1.73;;
24826;SDS011;12910;57.690;11.974;2023-02-28T16:13:50;3.70;;;1.50;;
24826;SDS011;12910;57.690;11.974;2023-02-28T16:16:18;8.23;;;1.43;;
24826;SDS011;12910;57.690;11.974;2023-02-28T16:18:45;7.13;;;1.90;;
24826;SDS011;12910;57.690;11.974;2023-02-28T16:21:11;3.67;;;1.40;;
24826;SDS011;12910;57.690;11.974;2023-02-28T16:23:36;6.77;;;1.50;;
24826;SDS011;12910;57.690;11.974;2023-02-28T16:26:02;7.53;;;2.17;;
24826;SDS011;12910;57.690;11.974;2023-02-28T16:28:30;9.10;;;2.30;;
24826;SDS011;12910;57.690;11.974;2023-02-28T16:31:02;6.80;;;2.87;;
24826;SDS011;12910;57.690;11.974;2023-02-28T16:33:30;2.07;;;1.60;;
24826;SDS011;12910;57.690;11.974;2023-02-28T16:35:57;11.90;;;2.33;;
24826;SDS011;12910;57.690;11.974;2023-02-28T16:38:22;5.80;;;1.40;;
24826;SDS011;12910;57.690;11.974;2023-02-28T16:40:50;9.53;;;2.10;;
24826;SDS011;12910;57.690;11.974;2023-02-28T16:43:17;2.10;;;1.37;;
24826;SDS011;12910;57.690;11.974;2023-02-28T16:45:46;3.00;;;1.50;;
24826;SDS011;12910;57.690;11.974;2023-02-28T16:48:13;4.70;;;1.77;;
24826;SDS011;12910;57.690;11.974;2023-02-28T16:50:40;7.60;;;1.50;;
24826;SDS011;12910;57.690;11.974;2023-02-28T16:53:06;6.70;;;1.30;;
24826;SDS011;12910;57.690;11.974;2023-02-28T16:55:31;14.87;;;1.70;;
24826;SDS011;12910;57.690;11.974;2023-02-28T16:57:58;3.80;;;1.40;;
24826;SDS011;12910;57.690;11.974;2023-02-28T17:00:25;4.87;;;1.10;;
24826;SDS011;12910;57.690;11.974;2023-02-28T17:02:52;3.47;;;1.57;;
24826;SDS011;12910;57.690;11.974;2023-02-28T17:05:18;2.50;;;2.30;;
24826;SDS011;12910;57.690;11.974;2023-02-28T17:07:44;4.60;;;1.60;;
24826;SDS011;12910;57.690;11.974;2023-02-28T17:10:12;1.70;;;1.60;;
24826;SDS011;12910;57.690;11.974;2023-02-28T17:12:39;4.90;;;1.20;;
24826;SDS011;12910;57.690;11.974;2023-02-28T17:15:05;1.47;;;1.37;;
24826;SDS011;12910;57.690;11.974;2023-02-28T17:17:31;5.33;;;1.60;;
24826;SDS011;12910;57.690;11.974;2023-02-28T17:19:57;1.43;;;1.30;;
24826;SDS011;12910;57.690;11.974;2023-02-28T17:22:22;8.90;;;1.90;;
24826;SDS011;12910;57.690;11.974;2023-02-28T17:24:48;6.17;;;2.27;;
24826;SDS011;12910;57.690;11.974;2023-02-28T17:27:13;3.93;;;1.97;;
24826;SDS011;12910;57.690;11.974;2023-02-28T17:29:38;3.90;;;1.70;;
24826;SDS011;12910;57.690;11.974;2023-02-28T17:32:04;4.73;;;1.60;;
24826;SDS011;12910;57.690;11.974;2023-02-28T17:34:29;6.60;;;1.77;;
24826;SDS011;12910;57.690;11.974;2023-02-28T17:36:55;8.63;;;1.63;;